sensor_id;sensor_type;location;lat;lon;timestamp;temperature;humidity
1830;DHT22;914;48.118;11.600;2023-06-10T00:01:25;19.70;92.00
1830;DHT22;914;48.118;11.600;2023-06-10T00:03:51;19.80;92.30
1830;DHT22;914;48.118;11.600;2023-06-10T00:06:17;20.20;92.20
1830;DHT22;914;48.118;11.600;2023-06-10T00:08:43;20.60;91.30
1830;DHT22;914;48.118;11.600;2023-06-10T00:11:09;20.60;91.40
1830;DHT22;914;48.118;11.600;2023-06-10T00:13:35;20.60;91.00
1830;DHT22;914;48.118;11.600;2023-06-10T00:16:01;20.60;90.90
1830;DHT22;914;48.118;11.600;2023-06-10T00:18:26;20.70;91.00
1830;DHT22;914;48.118;11.600;2023-06-10T00:20:53;20.90;90.70
1830;DHT22;914;48.118;11.600;2023-06-10T00:23:21;20.90;91.00
1830;DHT22;914;48.118;11.600;2023-06-10T00:25:46;20.30;91.40
1830;DHT22;914;48.118;11.600;2023-06-10T00:28:12;20.40;91.50
1830;DHT22;914;48.118;11.600;2023-06-10T00:30:39;20.60;91.20
1830;DHT22;914;48.118;11.600;2023-06-10T00:33:04;20.20;91.20
1830;DHT22;914;48.118;11.600;2023-06-10T00:35:30;20.10;91.80
1830;DHT22;914;48.118;11.600;2023-06-10T00:37:55;20.30;92.00
1830;DHT22;914;48.118;11.600;2023-06-10T00:40:21;20.30;91.20
1830;DHT22;914;48.118;11.600;2023-06-10T00:42:47;19.70;92.00
1830;DHT22;914;48.118;11.600;2023-06-10T00:45:12;19.80;91.90
1830;DHT22;914;48.118;11.600;2023-06-10T00:47:38;19.30;92.90
1830;DHT22;914;48.118;11.600;2023-06-10T00:50:05;19.40;92.80
1830;DHT22;914;48.118;11.600;2023-06-10T00:52:31;19.70;92.60
1830;DHT22;914;48.118;11.600;2023-06-10T00:54:57;19.70;92.60
1830;DHT22;914;48.118;11.600;2023-06-10T00:57:25;19.80;92.20
1830;DHT22;914;48.118;11.600;2023-06-10T00:59:50;19.70;92.10
1830;DHT22;914;48.118;11.600;2023-06-10T01:02:16;19.30;92.80
1830;DHT22;914;48.118;11.600;2023-06-10T01:04:42;19.50;92.90
1830;DHT22;914;48.118;11.600;2023-06-10T01:12:34;19.70;92.60
1830;DHT22;914;48.118;11.600;2023-06-10T01:15:03;19.60;92.30
1830;DHT22;914;48.118;11.600;2023-06-10T01:17:29;19.60;92.30
1830;DHT22;914;48.118;11.600;2023-06-10T01:19:57;19.60;92.50
1830;DHT22;914;48.118;11.600;2023-06-10T01:22:26;19.70;92.80
1830;DHT22;914;48.118;11.600;2023-06-10T01:24:58;19.40;93.20
1830;DHT22;914;48.118;11.600;2023-06-10T01:27:29;19.50;93.30
1830;DHT22;914;48.118;11.600;2023-06-10T01:30:00;19.60;92.50
1830;DHT22;914;48.118;11.600;2023-06-10T01:32:36;19.80;93.00
1830;DHT22;914;48.118;11.600;2023-06-10T01:35:03;19.80;92.40
1830;DHT22;914;48.118;11.600;2023-06-10T01:37:31;19.80;92.70
1830;DHT22;914;48.118;11.600;2023-06-10T01:39:58;19.70;92.40
1830;DHT22;914;48.118;11.600;2023-06-10T01:42:25;19.60;92.50
1830;DHT22;914;48.118;11.600;2023-06-10T01:44:51;19.50;92.50
1830;DHT22;914;48.118;11.600;2023-06-10T01:47:16;19.50;93.10
1830;DHT22;914;48.118;11.600;2023-06-10T01:49:43;19.40;92.70
1830;DHT22;914;48.118;11.600;2023-06-10T01:52:08;19.50;92.80
1830;DHT22;914;48.118;11.600;2023-06-10T01:54:34;19.50;92.80
1830;DHT22;914;48.118;11.600;2023-06-10T01:57:04;19.30;93.30
1830;DHT22;914;48.118;11.600;2023-06-10T01:59:31;19.20;93.60
1830;DHT22;914;48.118;11.600;2023-06-10T02:01:57;19.10;93.70
1830;DHT22;914;48.118;11.600;2023-06-10T02:04:22;18.80;94.40
1830;DHT22;914;48.118;11.600;2023-06-10T02:06:48;18.90;94.40
1830;DHT22;914;48.118;11.600;2023-06-10T02:09:14;18.90;94.30
1830;DHT22;914;48.118;11.600;2023-06-10T02:11:39;19.10;94.10
1830;DHT22;914;48.118;11.600;2023-06-10T02:14:05;19.10;93.80
1830;DHT22;914;48.118;11.600;2023-06-10T02:16:31;19.20;93.80
1830;DHT22;914;48.118;11.600;2023-06-10T02:18:56;19.20;93.40
1830;DHT22;914;48.118;11.600;2023-06-10T02:21:23;19.20;93.50
1830;DHT22;914;48.118;11.600;2023-06-10T02:23:48;19.10;93.40
1830;DHT22;914;48.118;11.600;2023-06-10T02:26:14;19.10;93.40
1830;DHT22;914;48.118;11.600;2023-06-10T02:28:43;19.10;93.40
1830;DHT22;914;48.118;11.600;2023-06-10T02:31:09;19.10;94.10
1830;DHT22;914;48.118;11.600;2023-06-10T02:33:35;18.90;94.50
1830;DHT22;914;48.118;11.600;2023-06-10T02:36:06;18.80;94.90
1830;DHT22;914;48.118;11.600;2023-06-10T02:38:32;19.00;94.40
1830;DHT22;914;48.118;11.600;2023-06-10T02:40:57;19.00;94.00
1830;DHT22;914;48.118;11.600;2023-06-10T02:43:23;19.00;94.20
1830;DHT22;914;48.118;11.600;2023-06-10T02:45:48;19.10;94.20
1830;DHT22;914;48.118;11.600;2023-06-10T02:48:14;19.20;94.00
1830;DHT22;914;48.118;11.600;2023-06-10T02:50:39;19.10;93.70
1830;DHT22;914;48.118;11.600;2023-06-10T02:53:05;19.10;93.90
1830;DHT22;914;48.118;11.600;2023-06-10T02:55:31;19.10;93.60
1830;DHT22;914;48.118;11.600;2023-06-10T02:57:57;19.10;93.60
1830;DHT22;914;48.118;11.600;2023-06-10T03:00:23;19.10;93.70
1830;DHT22;914;48.118;11.600;2023-06-10T03:02:49;19.00;93.50
1830;DHT22;914;48.118;11.600;2023-06-10T03:05:14;18.90;93.80
1830;DHT22;914;48.118;11.600;2023-06-10T03:07:40;18.90;94.50
1830;DHT22;914;48.118;11.600;2023-06-10T03:10:06;18.90;94.50
1830;DHT22;914;48.118;11.600;2023-06-10T03:12:32;18.80;94.60
1830;DHT22;914;48.118;11.600;2023-06-10T03:14:58;18.80;95.00
1830;DHT22;914;48.118;11.600;2023-06-10T03:17:23;18.60;95.40
1830;DHT22;914;48.118;11.600;2023-06-10T03:19:49;18.60;96.10
1830;DHT22;914;48.118;11.600;2023-06-10T03:22:16;18.50;96.20
1830;DHT22;914;48.118;11.600;2023-06-10T03:24:42;17.90;97.10
1830;DHT22;914;48.118;11.600;2023-06-10T03:27:10;17.60;98.40
1830;DHT22;914;48.118;11.600;2023-06-10T03:29:37;17.20;99.70
1830;DHT22;914;48.118;11.600;2023-06-10T03:32:03;17.30;99.90
1830;DHT22;914;48.118;11.600;2023-06-10T03:34:29;17.70;99.90
1830;DHT22;914;48.118;11.600;2023-06-10T03:36:56;18.10;99.50
1830;DHT22;914;48.118;11.600;2023-06-10T03:39:21;17.90;99.50
1830;DHT22;914;48.118;11.600;2023-06-10T03:41:49;17.70;99.90
1830;DHT22;914;48.118;11.600;2023-06-10T03:44:14;17.70;99.90
1830;DHT22;914;48.118;11.600;2023-06-10T03:46:41;17.80;99.90
1830;DHT22;914;48.118;11.600;2023-06-10T03:49:06;17.40;99.90
1830;DHT22;914;48.118;11.600;2023-06-10T03:51:32;17.20;99.90
1830;DHT22;914;48.118;11.600;2023-06-10T03:53:58;17.20;99.90
1830;DHT22;914;48.118;11.600;2023-06-10T03:56:24;17.70;99.90
1830;DHT22;914;48.118;11.600;2023-06-10T03:58:49;17.90;99.90
1830;DHT22;914;48.118;11.600;2023-06-10T04:01:15;18.00;99.90
1830;DHT22;914;48.118;11.600;2023-06-10T04:03:43;18.20;99.90
1830;DHT22;914;48.118;11.600;2023-06-10T04:06:09;18.00;99.90
1830;DHT22;914;48.118;11.600;2023-06-10T04:08:34;17.50;99.90
1830;DHT22;914;48.118;11.600;2023-06-10T04:11:01;17.60;99.90
1830;DHT22;914;48.118;11.600;2023-06-10T04:13:27;17.30;99.90
1830;DHT22;914;48.118;11.600;2023-06-10T04:15:53;17.20;99.90
1830;DHT22;914;48.118;11.600;2023-06-10T04:18:20;17.20;99.90
1830;DHT22;914;48.118;11.600;2023-06-10T04:20:47;17.60;99.90
1830;DHT22;914;48.118;11.600;2023-06-10T04:23:12;17.50;99.90
1830;DHT22;914;48.118;11.600;2023-06-10T04:25:38;17.40;99.90
1830;DHT22;914;48.118;11.600;2023-06-10T04:28:04;17.30;99.90
1830;DHT22;914;48.118;11.600;2023-06-10T04:30:29;17.50;99.90
1830;DHT22;914;48.118;11.600;2023-06-10T04:32:57;17.60;99.90
1830;DHT22;914;48.118;11.600;2023-06-10T04:35:22;17.00;99.90
1830;DHT22;914;48.118;11.600;2023-06-10T04:37:48;17.00;99.90
1830;DHT22;914;48.118;11.600;2023-06-10T04:40:14;17.10;99.90
1830;DHT22;914;48.118;11.600;2023-06-10T04:42:41;17.20;99.90
1830;DHT22;914;48.118;11.600;2023-06-10T04:45:07;17.20;99.90
1830;DHT22;914;48.118;11.600;2023-06-10T04:47:33;17.10;99.90
1830;DHT22;914;48.118;11.600;2023-06-10T04:50:03;17.40;99.90
1830;DHT22;914;48.118;11.600;2023-06-10T04:52:29;18.10;99.90
1830;DHT22;914;48.118;11.600;2023-06-10T04:54:57;18.30;99.90
1830;DHT22;914;48.118;11.600;2023-06-10T04:57:23;18.40;99.90
1830;DHT22;914;48.118;11.600;2023-06-10T04:59:49;18.70;99.90
1830;DHT22;914;48.118;11.600;2023-06-10T05:02:14;18.80;99.90
1830;DHT22;914;48.118;11.600;2023-06-10T05:04:40;18.70;99.90
1830;DHT22;914;48.118;11.600;2023-06-10T05:07:06;18.80;99.90
1830;DHT22;914;48.118;11.600;2023-06-10T05:09:31;19.10;99.90
1830;DHT22;914;48.118;11.600;2023-06-10T05:11:58;19.00;99.90
1830;DHT22;914;48.118;11.600;2023-06-10T05:14:24;19.20;99.90
1830;DHT22;914;48.118;11.600;2023-06-10T05:16:49;19.10;99.90
1830;DHT22;914;48.118;11.600;2023-06-10T05:19:15;19.40;99.90
1830;DHT22;914;48.118;11.600;2023-06-10T05:21:45;19.40;99.90
1830;DHT22;914;48.118;11.600;2023-06-10T05:24:11;19.60;99.90
1830;DHT22;914;48.118;11.600;2023-06-10T05:26:36;19.40;99.90
1830;DHT22;914;48.118;11.600;2023-06-10T05:29:07;19.60;99.90
1830;DHT22;914;48.118;11.600;2023-06-10T05:31:34;19.80;99.90
1830;DHT22;914;48.118;11.600;2023-06-10T05:34:00;19.90;99.90
1830;DHT22;914;48.118;11.600;2023-06-10T05:36:25;19.90;99.90
1830;DHT22;914;48.118;11.600;2023-06-10T05:38:52;19.20;99.90
1830;DHT22;914;48.118;11.600;2023-06-10T05:41:17;19.20;99.90
1830;DHT22;914;48.118;11.600;2023-06-10T05:43:43;19.50;99.90
1830;DHT22;914;48.118;11.600;2023-06-10T05:46:08;20.00;99.90
1830;DHT22;914;48.118;11.600;2023-06-10T05:48:34;20.20;99.90
1830;DHT22;914;48.118;11.600;2023-06-10T05:51:00;20.10;99.90
1830;DHT22;914;48.118;11.600;2023-06-10T05:53:26;20.30;99.90
1830;DHT22;914;48.118;11.600;2023-06-10T05:55:51;20.30;99.90
1830;DHT22;914;48.118;11.600;2023-06-10T05:58:19;20.40;99.90
1830;DHT22;914;48.118;11.600;2023-06-10T06:00:45;20.50;99.90
1830;DHT22;914;48.118;11.600;2023-06-10T06:03:11;20.70;99.90
1830;DHT22;914;48.118;11.600;2023-06-10T06:05:37;20.70;99.90
1830;DHT22;914;48.118;11.600;2023-06-10T06:08:07;20.80;99.90
1830;DHT22;914;48.118;11.600;2023-06-10T06:10:33;20.90;99.90
1830;DHT22;914;48.118;11.600;2023-06-10T06:13:00;20.90;99.90
1830;DHT22;914;48.118;11.600;2023-06-10T06:15:26;21.00;99.90
1830;DHT22;914;48.118;11.600;2023-06-10T06:17:51;21.00;99.90
1830;DHT22;914;48.118;11.600;2023-06-10T06:20:21;21.10;99.90
1830;DHT22;914;48.118;11.600;2023-06-10T06:22:47;21.30;99.90
1830;DHT22;914;48.118;11.600;2023-06-10T06:25:13;21.60;99.90
1830;DHT22;914;48.118;11.600;2023-06-10T06:27:39;21.90;99.90
1830;DHT22;914;48.118;11.600;2023-06-10T06:30:05;21.70;99.90
1830;DHT22;914;48.118;11.600;2023-06-10T06:32:30;21.70;99.90
1830;DHT22;914;48.118;11.600;2023-06-10T06:34:56;21.90;99.80
1830;DHT22;914;48.118;11.600;2023-06-10T06:37:23;21.80;99.90
1830;DHT22;914;48.118;11.600;2023-06-10T06:39:54;21.40;99.60
1830;DHT22;914;48.118;11.600;2023-06-10T06:42:20;21.50;99.70
1830;DHT22;914;48.118;11.600;2023-06-10T06:44:46;21.40;99.90
1830;DHT22;914;48.118;11.600;2023-06-10T06:47:13;21.50;99.80
1830;DHT22;914;48.118;11.600;2023-06-10T06:49:38;21.60;99.80
1830;DHT22;914;48.118;11.600;2023-06-10T06:52:05;21.60;99.30
1830;DHT22;914;48.118;11.600;2023-06-10T06:54:31;21.50;99.90
1830;DHT22;914;48.118;11.600;2023-06-10T06:56:57;21.80;99.50
1830;DHT22;914;48.118;11.600;2023-06-10T06:59:23;21.90;98.90
1830;DHT22;914;48.118;11.600;2023-06-10T07:01:49;22.10;98.80
1830;DHT22;914;48.118;11.600;2023-06-10T07:04:15;22.00;98.90
1830;DHT22;914;48.118;11.600;2023-06-10T07:06:41;21.90;99.00
1830;DHT22;914;48.118;11.600;2023-06-10T07:09:10;21.90;99.10
1830;DHT22;914;48.118;11.600;2023-06-10T07:11:36;22.00;98.90
1830;DHT22;914;48.118;11.600;2023-06-10T07:14:02;22.10;99.50
1830;DHT22;914;48.118;11.600;2023-06-10T07:16:28;22.50;98.40
1830;DHT22;914;48.118;11.600;2023-06-10T07:18:54;22.50;98.10
1830;DHT22;914;48.118;11.600;2023-06-10T07:21:19;22.20;98.50
1830;DHT22;914;48.118;11.600;2023-06-10T07:23:46;22.10;98.50
1830;DHT22;914;48.118;11.600;2023-06-10T07:26:12;22.00;98.80
1830;DHT22;914;48.118;11.600;2023-06-10T07:28:41;21.70;99.20
1830;DHT22;914;48.118;11.600;2023-06-10T07:31:07;21.40;99.90
1830;DHT22;914;48.118;11.600;2023-06-10T07:33:33;22.10;99.30
1830;DHT22;914;48.118;11.600;2023-06-10T07:35:59;21.70;99.10
1830;DHT22;914;48.118;11.600;2023-06-10T07:38:26;22.10;99.10
1830;DHT22;914;48.118;11.600;2023-06-10T07:40:52;22.50;98.00
1830;DHT22;914;48.118;11.600;2023-06-10T07:43:17;22.70;97.40
1830;DHT22;914;48.118;11.600;2023-06-10T07:45:43;22.40;97.60
1830;DHT22;914;48.118;11.600;2023-06-10T07:48:09;22.30;97.90
1830;DHT22;914;48.118;11.600;2023-06-10T07:50:35;22.40;97.80
1830;DHT22;914;48.118;11.600;2023-06-10T07:53:01;22.30;97.80
1830;DHT22;914;48.118;11.600;2023-06-10T07:55:27;22.50;97.90
1830;DHT22;914;48.118;11.600;2023-06-10T07:57:53;23.00;97.50
1830;DHT22;914;48.118;11.600;2023-06-10T08:00:20;23.20;96.60
1830;DHT22;914;48.118;11.600;2023-06-10T08:02:46;22.90;96.10
1830;DHT22;914;48.118;11.600;2023-06-10T08:05:12;22.60;96.50
1830;DHT22;914;48.118;11.600;2023-06-10T08:07:38;21.80;97.60
1830;DHT22;914;48.118;11.600;2023-06-10T08:10:05;22.40;98.00
1830;DHT22;914;48.118;11.600;2023-06-10T08:12:31;23.00;97.20
1830;DHT22;914;48.118;11.600;2023-06-10T08:14:57;23.00;96.70
1830;DHT22;914;48.118;11.600;2023-06-10T08:17:22;23.50;96.20
1830;DHT22;914;48.118;11.600;2023-06-10T08:19:49;23.90;95.20
1830;DHT22;914;48.118;11.600;2023-06-10T08:22:14;23.60;95.70
1830;DHT22;914;48.118;11.600;2023-06-10T08:24:41;22.80;96.10
1830;DHT22;914;48.118;11.600;2023-06-10T08:27:07;23.40;95.90
1830;DHT22;914;48.118;11.600;2023-06-10T08:29:33;23.40;96.20
1830;DHT22;914;48.118;11.600;2023-06-10T08:31:58;23.50;96.20
1830;DHT22;914;48.118;11.600;2023-06-10T08:34:24;23.90;95.40
1830;DHT22;914;48.118;11.600;2023-06-10T08:36:50;23.20;94.90
1830;DHT22;914;48.118;11.600;2023-06-10T08:39:19;23.40;95.80
1830;DHT22;914;48.118;11.600;2023-06-10T08:44:35;23.50;95.70
1830;DHT22;914;48.118;11.600;2023-06-10T08:47:12;24.10;95.50
1830;DHT22;914;48.118;11.600;2023-06-10T08:49:43;24.40;94.20
1830;DHT22;914;48.118;11.600;2023-06-10T08:52:14;24.80;93.80
1830;DHT22;914;48.118;11.600;2023-06-10T08:54:43;24.40;94.40
1830;DHT22;914;48.118;11.600;2023-06-10T08:57:09;24.60;94.20
1830;DHT22;914;48.118;11.600;2023-06-10T08:59:35;24.40;93.90
1830;DHT22;914;48.118;11.600;2023-06-10T09:02:02;23.30;94.90
1830;DHT22;914;48.118;11.600;2023-06-10T09:04:29;22.60;96.00
1830;DHT22;914;48.118;11.600;2023-06-10T09:06:59;22.30;97.10
1830;DHT22;914;48.118;11.600;2023-06-10T09:09:28;22.60;97.50
1830;DHT22;914;48.118;11.600;2023-06-10T09:11:56;23.10;96.60
1830;DHT22;914;48.118;11.600;2023-06-10T09:14:21;24.00;95.30
1830;DHT22;914;48.118;11.600;2023-06-10T09:16:49;23.20;95.20
1830;DHT22;914;48.118;11.600;2023-06-10T09:19:16;23.60;95.60
1830;DHT22;914;48.118;11.600;2023-06-10T09:21:42;23.80;94.80
1830;DHT22;914;48.118;11.600;2023-06-10T09:24:08;23.60;95.20
1830;DHT22;914;48.118;11.600;2023-06-10T09:26:34;23.90;94.50
1830;DHT22;914;48.118;11.600;2023-06-10T09:29:04;24.30;94.90
1830;DHT22;914;48.118;11.600;2023-06-10T09:31:56;24.40;93.80
1830;DHT22;914;48.118;11.600;2023-06-10T09:34:32;25.00;93.90
1830;DHT22;914;48.118;11.600;2023-06-10T09:36:58;25.40;92.10
1830;DHT22;914;48.118;11.600;2023-06-10T09:39:24;24.70;91.90
1830;DHT22;914;48.118;11.600;2023-06-10T09:41:49;24.30;92.20
1830;DHT22;914;48.118;11.600;2023-06-10T09:44:20;24.50;92.60
1830;DHT22;914;48.118;11.600;2023-06-10T09:46:47;24.50;92.80
1830;DHT22;914;48.118;11.600;2023-06-10T09:49:13;23.70;93.10
1830;DHT22;914;48.118;11.600;2023-06-10T09:51:50;23.70;93.60
1830;DHT22;914;48.118;11.600;2023-06-10T09:54:16;24.30;94.10
1830;DHT22;914;48.118;11.600;2023-06-10T09:56:42;24.70;92.50
1830;DHT22;914;48.118;11.600;2023-06-10T09:59:08;24.30;92.60
1830;DHT22;914;48.118;11.600;2023-06-10T10:01:34;24.50;91.60
1830;DHT22;914;48.118;11.600;2023-06-10T10:03:59;24.60;92.00
1830;DHT22;914;48.118;11.600;2023-06-10T10:06:26;23.70;91.90
1830;DHT22;914;48.118;11.600;2023-06-10T10:08:53;23.70;93.30
1830;DHT22;914;48.118;11.600;2023-06-10T10:11:20;23.80;92.40
1830;DHT22;914;48.118;11.600;2023-06-10T10:13:49;23.30;93.60
1830;DHT22;914;48.118;11.600;2023-06-10T10:16:17;24.40;93.20
1830;DHT22;914;48.118;11.600;2023-06-10T10:18:47;24.50;91.10
1830;DHT22;914;48.118;11.600;2023-06-10T10:21:26;24.60;91.90
1830;DHT22;914;48.118;11.600;2023-06-10T10:24:07;24.90;90.70
1830;DHT22;914;48.118;11.600;2023-06-10T10:26:53;25.20;92.40
1830;DHT22;914;48.118;11.600;2023-06-10T10:29:31;25.10;90.20
1830;DHT22;914;48.118;11.600;2023-06-10T10:31:59;25.40;88.80
1830;DHT22;914;48.118;11.600;2023-06-10T10:35:02;24.70;90.00
1830;DHT22;914;48.118;11.600;2023-06-10T10:37:31;24.90;90.40
1830;DHT22;914;48.118;11.600;2023-06-10T10:39:57;25.00;91.90
1830;DHT22;914;48.118;11.600;2023-06-10T10:42:23;25.80;89.60
1830;DHT22;914;48.118;11.600;2023-06-10T10:44:50;25.60;88.80
1830;DHT22;914;48.118;11.600;2023-06-10T10:47:19;25.80;90.10
1830;DHT22;914;48.118;11.600;2023-06-10T10:49:49;25.40;87.30
1830;DHT22;914;48.118;11.600;2023-06-10T10:52:17;25.60;89.00
1830;DHT22;914;48.118;11.600;2023-06-10T10:54:44;26.30;89.10
1830;DHT22;914;48.118;11.600;2023-06-10T10:57:13;26.80;85.90
1830;DHT22;914;48.118;11.600;2023-06-10T11:04:57;26.60;85.50
1830;DHT22;914;48.118;11.600;2023-06-10T11:07:25;26.60;85.80
1830;DHT22;914;48.118;11.600;2023-06-10T11:09:58;26.00;85.20
1830;DHT22;914;48.118;11.600;2023-06-10T11:12:25;26.00;84.20
1830;DHT22;914;48.118;11.600;2023-06-10T11:14:55;26.20;84.70
1830;DHT22;914;48.118;11.600;2023-06-10T11:17:21;26.40;84.60
1830;DHT22;914;48.118;11.600;2023-06-10T11:19:47;26.40;85.10
1830;DHT22;914;48.118;11.600;2023-06-10T11:22:17;26.40;85.40
1830;DHT22;914;48.118;11.600;2023-06-10T11:24:48;26.70;85.30
1830;DHT22;914;48.118;11.600;2023-06-10T11:27:24;27.00;85.00
1830;DHT22;914;48.118;11.600;2023-06-10T11:32:32;27.80;82.70
1830;DHT22;914;48.118;11.600;2023-06-10T11:34:58;28.10;82.60
1830;DHT22;914;48.118;11.600;2023-06-10T11:37:24;28.40;78.90
1830;DHT22;914;48.118;11.600;2023-06-10T11:39:54;28.40;79.10
1830;DHT22;914;48.118;11.600;2023-06-10T11:42:24;28.60;79.20
1830;DHT22;914;48.118;11.600;2023-06-10T11:44:50;28.40;79.90
1830;DHT22;914;48.118;11.600;2023-06-10T11:47:17;27.90;75.30
1830;DHT22;914;48.118;11.600;2023-06-10T11:49:43;27.90;78.20
1830;DHT22;914;48.118;11.600;2023-06-10T11:52:09;28.30;77.90
1830;DHT22;914;48.118;11.600;2023-06-10T11:54:36;28.40;76.20
1830;DHT22;914;48.118;11.600;2023-06-10T11:57:02;27.70;75.90
1830;DHT22;914;48.118;11.600;2023-06-10T11:59:33;26.90;77.20
1830;DHT22;914;48.118;11.600;2023-06-10T12:01:59;26.40;76.00
1830;DHT22;914;48.118;11.600;2023-06-10T12:04:27;26.60;76.50
1830;DHT22;914;48.118;11.600;2023-06-10T12:06:54;27.20;77.00
1830;DHT22;914;48.118;11.600;2023-06-10T12:09:23;26.70;76.90
1830;DHT22;914;48.118;11.600;2023-06-10T12:11:54;27.20;78.80
1830;DHT22;914;48.118;11.600;2023-06-10T12:17:21;27.80;76.30
1830;DHT22;914;48.118;11.600;2023-06-10T12:19:47;27.70;72.90
1830;DHT22;914;48.118;11.600;2023-06-10T12:22:14;28.00;75.80
1830;DHT22;914;48.118;11.600;2023-06-10T12:24:57;28.30;74.50
1830;DHT22;914;48.118;11.600;2023-06-10T12:27:27;27.70;72.50
1830;DHT22;914;48.118;11.600;2023-06-10T12:29:56;27.30;73.80
1830;DHT22;914;48.118;11.600;2023-06-10T12:32:42;27.20;74.30
1830;DHT22;914;48.118;11.600;2023-06-10T12:35:16;27.40;74.70
1830;DHT22;914;48.118;11.600;2023-06-10T12:37:54;28.40;73.70
1830;DHT22;914;48.118;11.600;2023-06-10T12:40:32;28.90;71.60
1830;DHT22;914;48.118;11.600;2023-06-10T12:42:59;28.30;70.70
1830;DHT22;914;48.118;11.600;2023-06-10T12:45:31;28.60;71.30
1830;DHT22;914;48.118;11.600;2023-06-10T12:48:19;28.60;69.70
1830;DHT22;914;48.118;11.600;2023-06-10T12:50:56;28.00;71.70
1830;DHT22;914;48.118;11.600;2023-06-10T12:53:22;28.50;71.20
1830;DHT22;914;48.118;11.600;2023-06-10T12:55:54;29.50;68.60
1830;DHT22;914;48.118;11.600;2023-06-10T12:58:20;27.90;71.60
1830;DHT22;914;48.118;11.600;2023-06-10T13:00:47;27.10;76.20
1830;DHT22;914;48.118;11.600;2023-06-10T13:03:14;27.90;77.00
1830;DHT22;914;48.118;11.600;2023-06-10T13:05:40;29.10;76.80
1830;DHT22;914;48.118;11.600;2023-06-10T13:08:06;29.90;76.60
1830;DHT22;914;48.118;11.600;2023-06-10T13:10:32;31.00;73.60
1830;DHT22;914;48.118;11.600;2023-06-10T13:12:59;30.00;75.50
1830;DHT22;914;48.118;11.600;2023-06-10T13:15:25;29.90;75.90
1830;DHT22;914;48.118;11.600;2023-06-10T13:17:52;31.70;72.60
1830;DHT22;914;48.118;11.600;2023-06-10T13:20:18;32.80;70.00
1830;DHT22;914;48.118;11.600;2023-06-10T13:22:44;33.10;69.60
1830;DHT22;914;48.118;11.600;2023-06-10T13:25:09;33.40;69.40
1830;DHT22;914;48.118;11.600;2023-06-10T13:27:36;32.00;65.20
1830;DHT22;914;48.118;11.600;2023-06-10T13:30:05;31.30;69.40
1830;DHT22;914;48.118;11.600;2023-06-10T13:32:31;31.40;71.10
1830;DHT22;914;48.118;11.600;2023-06-10T13:34:57;32.50;68.20
1830;DHT22;914;48.118;11.600;2023-06-10T13:37:23;33.60;67.40
1830;DHT22;914;48.118;11.600;2023-06-10T13:39:48;33.60;66.30
1830;DHT22;914;48.118;11.600;2023-06-10T13:42:17;34.90;64.10
1830;DHT22;914;48.118;11.600;2023-06-10T13:44:43;34.70;63.30
1830;DHT22;914;48.118;11.600;2023-06-10T13:47:08;34.90;61.40
1830;DHT22;914;48.118;11.600;2023-06-10T13:49:34;31.80;62.30
1830;DHT22;914;48.118;11.600;2023-06-10T13:52:01;29.30;66.80
1830;DHT22;914;48.118;11.600;2023-06-10T13:54:26;28.10;70.90
1830;DHT22;914;48.118;11.600;2023-06-10T13:56:53;28.40;74.00
1830;DHT22;914;48.118;11.600;2023-06-10T13:59:19;29.30;71.30
1830;DHT22;914;48.118;11.600;2023-06-10T14:01:44;29.90;73.60
1830;DHT22;914;48.118;11.600;2023-06-10T14:04:10;30.40;70.20
1830;DHT22;914;48.118;11.600;2023-06-10T14:06:36;30.60;68.50
1830;DHT22;914;48.118;11.600;2023-06-10T14:09:02;27.60;68.20
1830;DHT22;914;48.118;11.600;2023-06-10T14:11:28;26.70;72.50
1830;DHT22;914;48.118;11.600;2023-06-10T14:13:53;25.80;72.30
1830;DHT22;914;48.118;11.600;2023-06-10T14:16:21;26.40;74.10
1830;DHT22;914;48.118;11.600;2023-06-10T14:18:47;26.30;74.70
1830;DHT22;914;48.118;11.600;2023-06-10T14:21:13;26.00;75.70
1830;DHT22;914;48.118;11.600;2023-06-10T14:23:39;25.60;76.70
1830;DHT22;914;48.118;11.600;2023-06-10T14:26:04;26.50;77.50
1830;DHT22;914;48.118;11.600;2023-06-10T14:28:32;26.80;74.50
1830;DHT22;914;48.118;11.600;2023-06-10T14:30:58;27.00;76.20
1830;DHT22;914;48.118;11.600;2023-06-10T14:33:23;27.50;77.30
1830;DHT22;914;48.118;11.600;2023-06-10T14:35:49;27.90;75.50
1830;DHT22;914;48.118;11.600;2023-06-10T14:38:15;28.20;74.70
1830;DHT22;914;48.118;11.600;2023-06-10T14:40:40;28.20;75.40
1830;DHT22;914;48.118;11.600;2023-06-10T14:43:06;28.30;73.40
1830;DHT22;914;48.118;11.600;2023-06-10T14:45:36;28.70;73.00
1830;DHT22;914;48.118;11.600;2023-06-10T14:48:03;28.90;71.10
1830;DHT22;914;48.118;11.600;2023-06-10T14:50:29;29.20;71.90
1830;DHT22;914;48.118;11.600;2023-06-10T14:52:54;29.60;69.80
1830;DHT22;914;48.118;11.600;2023-06-10T14:55:20;29.70;70.00
1830;DHT22;914;48.118;11.600;2023-06-10T14:57:48;29.40;70.00
1830;DHT22;914;48.118;11.600;2023-06-10T15:00:14;29.40;70.00
1830;DHT22;914;48.118;11.600;2023-06-10T15:02:42;29.70;70.00
1830;DHT22;914;48.118;11.600;2023-06-10T15:05:08;30.00;66.80
1830;DHT22;914;48.118;11.600;2023-06-10T15:07:34;28.40;69.30
1830;DHT22;914;48.118;11.600;2023-06-10T15:10:00;28.50;72.00
1830;DHT22;914;48.118;11.600;2023-06-10T15:12:25;28.70;72.40
1830;DHT22;914;48.118;11.600;2023-06-10T15:14:53;28.50;74.60
1830;DHT22;914;48.118;11.600;2023-06-10T15:17:18;28.90;75.20
1830;DHT22;914;48.118;11.600;2023-06-10T15:19:44;29.30;73.80
1830;DHT22;914;48.118;11.600;2023-06-10T15:22:09;29.40;74.60
1830;DHT22;914;48.118;11.600;2023-06-10T15:24:37;29.00;73.70
1830;DHT22;914;48.118;11.600;2023-06-10T15:27:03;27.70;76.30
1830;DHT22;914;48.118;11.600;2023-06-10T15:29:28;27.80;78.10
1830;DHT22;914;48.118;11.600;2023-06-10T15:31:54;27.10;76.30
1830;DHT22;914;48.118;11.600;2023-06-10T15:34:19;26.20;79.40
1830;DHT22;914;48.118;11.600;2023-06-10T15:36:45;25.80;80.70
1830;DHT22;914;48.118;11.600;2023-06-10T15:39:11;25.70;80.10
1830;DHT22;914;48.118;11.600;2023-06-10T15:41:36;25.90;79.90
1830;DHT22;914;48.118;11.600;2023-06-10T15:44:02;26.50;79.70
1830;DHT22;914;48.118;11.600;2023-06-10T15:46:31;27.30;76.70
1830;DHT22;914;48.118;11.600;2023-06-10T15:48:57;27.50;73.40
1830;DHT22;914;48.118;11.600;2023-06-10T15:51:23;27.90;73.00
1830;DHT22;914;48.118;11.600;2023-06-10T15:53:49;27.40;72.80
1830;DHT22;914;48.118;11.600;2023-06-10T15:56:15;26.40;75.50
1830;DHT22;914;48.118;11.600;2023-06-10T15:58:41;25.60;79.40
1830;DHT22;914;48.118;11.600;2023-06-10T16:01:07;25.90;81.00
1830;DHT22;914;48.118;11.600;2023-06-10T16:03:35;26.20;80.10
1830;DHT22;914;48.118;11.600;2023-06-10T16:06:01;27.10;78.30
1830;DHT22;914;48.118;11.600;2023-06-10T16:08:26;27.00;78.40
1830;DHT22;914;48.118;11.600;2023-06-10T16:10:53;27.20;78.70
1830;DHT22;914;48.118;11.600;2023-06-10T16:13:18;26.80;80.80
1830;DHT22;914;48.118;11.600;2023-06-10T16:15:44;26.90;81.10
1830;DHT22;914;48.118;11.600;2023-06-10T16:18:09;26.50;82.90
1830;DHT22;914;48.118;11.600;2023-06-10T16:20:35;26.70;82.60